Lodgepole, SD (57640)

5:51 AM MDT on October 02, 2014 (GMT -0600)
Hettinger Municipal | Change Station
CLOSE
Current Station
Airport
Location: Hettinger,
Elevation: 2703 ft
Nearby Weather Stations

Elev 2703 ft 46.01 °N, 102.66 °W | Updated -1474 second ago

Clear
Clear
53 °F
Feels Like 53 °F
N
16
Wind Variable Wind from West

Today
High -- | Low -- °F
--% Chance of Precip.
Yesterday
High -- | Low -- °F
Precip. -- in
6:50 AM 6:29 PM
First Quarter, 58% visible
Pressure 29.70 in
Visibility 8.0 miles
Clouds Scattered Clouds 1500 ft
Overcast 3500 ft
Dew Point 50 °F
Humidity 89%
Rainfall 0.00 in
Snow Depth 0 in , 1 in
UV 0 out of 12
Pollen 2.50 out of 12
Air Quality Not available.
Flu Activity Not available.
METAR KHEI 011216Z AUTO 27014KT 8SM SCT015 OVC035 12/10 A2970 RMK AO2 T01170100

More Conditions Fewer Conditions

Pressure 29.70 in
Visibility 8.0 miles
Clouds Scattered Clouds 1500 ft
Overcast 3500 ft
Dew Point 50 °F
Humidity 89%
Rainfall 0.00 in
Snow Depth 0 in , 1 in
UV 0 out of 12
Pollen 2.50 out of 12
Air Quality Not available.
Flu Activity Not available.
METAR KHEI 011216Z AUTO 27014KT 8SM SCT015 OVC035 12/10 A2970 RMK AO2 T01170100

More Conditions Fewer Conditions

10-Day Weather Forecast

Almanac

Astronomy

Oct. 02, 2014 Rise Set
Actual Time 6:50 AM MDT 6:29 PM MDT
Civil Twilight 6:21 AM MDT 6:58 PM MDT
Nautical Twilight 5:46 AM MDT 7:33 PM MDT
Astronomical Twilight 5:11 AM MDT 8:08 PM MDT
Moon 2:53 PM MDT No Moon Set
Length of Visible Light 12h 37m
Length of Day
11h 38m
Tomorrow will be 3m 12s shorter.
First Quarter, 58% of the Moon is Illuminated
Today
First Quarter
Oct 8
Full
Oct 15
Last Quarter
Oct 23
New
Oct 30
First Quarter

Today's Extremes

State Highs State Lows

Community

WunderPhotos

Upload Photos

1,758,221 photos uploaded!

WunderBlogs® & News

Nearby

Snow Depth

Station Depth Elevation
North Rapid Creek 0 in 6130 ft
Blind Park 1 in 6890 ft

Earthquake Activity

City Distance Mag. Time & Date
No recent earthquake activity has been reported nearby.
Minimum magnitude displayed is 2.5.

Coastal Water Temperatures

Place Temperature
No Stations Reporting

Nearby Weather Stations